Time;durP1;ratioP1;P1;durP2;ratioP2;P2;SDS_P1;SDS_P2;PMS_P1;PMS_P2;Temp;Humidity;BMP_temperature;BMP_pressure;BME280_temperature;BME280_humidity;BME280_pressure;Samples;Min_cycle;Max_cycle;Signal;HPM_P1;HPM_P2
2023/07/29 00:00:40;;;;;;;6.90;6.17;;;16.60;99.90;;;;;;5076654;28;20201;-79
2023/07/29 00:03:07;;;;;;;7.22;6.53;;;16.60;99.90;;;;;;5076715;28;20223;-80
2023/07/29 00:05:34;;;;;;;7.33;6.50;;;16.50;99.90;;;;;;5077090;28;20197;-80
2023/07/29 00:08:00;;;;;;;7.63;6.67;;;16.50;99.90;;;;;;5077029;28;20201;-78
2023/07/29 00:10:28;;;;;;;7.80;7.00;;;16.50;99.90;;;;;;5076614;28;20205;-79
2023/07/29 00:12:55;;;;;;;8.20;7.03;;;16.50;99.90;;;;;;5076335;28;20645;-79
2023/07/29 00:15:22;;;;;;;8.07;7.27;;;16.50;99.90;;;;;;5076531;28;20270;-79
2023/07/29 00:17:48;;;;;;;8.17;7.37;;;16.50;99.90;;;;;;5076296;28;20221;-79
2023/07/29 00:20:15;;;;;;;8.75;7.55;;;16.50;99.90;;;;;;5076779;28;20255;-79
2023/07/29 00:22:42;;;;;;;7.90;7.20;;;16.50;99.90;;;;;;5076034;28;20213;-80
2023/07/29 00:25:09;;;;;;;9.40;7.83;;;16.50;99.90;;;;;;5076493;28;20196;-80
2023/07/29 00:27:36;;;;;;;9.47;8.33;;;16.40;99.90;;;;;;5076137;28;20258;-79
2023/07/29 00:30:04;;;;;;;10.13;8.57;;;16.40;99.90;;;;;;5075671;28;20201;-80
2023/07/29 00:32:31;;;;;;;9.77;8.53;;;16.40;99.90;;;;;;5076077;28;20201;-80
2023/07/29 00:35:00;;;;;;;9.80;8.43;;;16.40;99.90;;;;;;5075976;28;20325;-80
2023/07/29 00:37:27;;;;;;;8.97;8.07;;;16.30;99.90;;;;;;5076007;28;20228;-79
2023/07/29 00:39:54;;;;;;;10.27;8.23;;;16.20;99.90;;;;;;5076099;28;20197;-79
2023/07/29 00:42:20;;;;;;;10.07;9.07;;;16.20;99.90;;;;;;5075915;28;20200;-80
2023/07/29 00:44:48;;;;;;;9.80;8.80;;;16.20;99.90;;;;;;5075206;28;20205;-79
2023/07/29 00:47:16;;;;;;;11.70;10.50;;;16.20;99.90;;;;;;5075685;28;20201;-79
2023/07/29 00:49:44;;;;;;;11.87;10.70;;;16.30;99.90;;;;;;5075796;28;20197;-79
2023/07/29 00:52:12;;;;;;;13.17;11.93;;;16.20;99.90;;;;;;5075479;28;20201;-80
2023/07/29 00:54:39;;;;;;;15.23;12.47;;;16.20;99.90;;;;;;5076356;28;20695;-80
2023/07/29 00:57:06;;;;;;;13.00;11.47;;;16.30;99.90;;;;;;5075345;28;20271;-78
2023/07/29 00:59:33;;;;;;;13.70;12.03;;;16.20;99.90;;;;;;5077392;28;20236;-79
2023/07/29 01:02:01;;;;;;;13.57;12.10;;;16.20;99.90;;;;;;5075495;28;20204;-79
2023/07/29 01:04:28;;;;;;;14.10;12.03;;;16.20;99.90;;;;;;5075115;28;20196;-78
2023/07/29 01:07:03;;;;;;;14.00;12.50;;;16.10;99.90;;;;;;5075206;28;20201;-79
2023/07/29 01:09:37;;;;;;;13.87;12.27;;;16.10;99.90;;;;;;5074791;28;20196;-79
2023/07/29 01:12:19;;;;;;;14.07;12.53;;;16.10;99.90;;;;;;5074839;28;20195;-79
2023/07/29 01:14:52;;;;;;;14.17;12.67;;;16.00;99.90;;;;;;5075148;28;20197;-79
2023/07/29 01:17:24;;;;;;;17.97;14.03;;;15.90;99.90;;;;;;5075179;28;20266;-79
2023/07/29 01:20:02;;;;;;;16.20;13.83;;;15.90;99.90;;;;;;5074841;28;20227;-79
2023/07/29 01:22:30;;;;;;;15.60;13.47;;;15.90;99.90;;;;;;5074981;28;20671;-79
2023/07/29 01:24:59;;;;;;;18.37;14.33;;;15.90;99.90;;;;;;5074870;28;20193;-79
2023/07/29 01:27:25;;;;;;;18.93;14.90;;;15.90;99.90;;;;;;5074472;28;20201;-79
2023/07/29 01:29:52;;;;;;;21.53;15.63;;;15.80;99.90;;;;;;5074702;28;20251;-79
2023/07/29 01:32:26;;;;;;;17.27;14.57;;;15.80;99.90;;;;;;5074738;28;20197;-79
2023/07/29 01:35:01;;;;;;;18.07;15.50;;;15.80;99.90;;;;;;5074400;28;20196;-79
2023/07/29 01:37:31;;;;;;;16.97;15.13;;;15.80;99.90;;;;;;5074608;28;20231;-79
2023/07/29 01:40:00;;;;;;;17.63;15.23;;;15.80;99.90;;;;;;5074603;28;20197;-79
2023/07/29 01:42:28;;;;;;;19.27;15.63;;;15.80;99.90;;;;;;5073620;28;20243;-79
2023/07/29 01:44:54;;;;;;;20.50;14.90;;;15.90;99.90;;;;;;5074276;28;20648;-79
2023/07/29 01:47:22;;;;;;;18.30;16.00;;;15.90;99.90;;;;;;5074275;28;20205;-80
2023/07/29 01:49:49;;;;;;;19.03;16.27;;;15.80;99.90;;;;;;5074448;28;20207;-79
2023/07/29 01:52:15;;;;;;;18.50;15.60;;;15.80;99.90;;;;;;5077150;28;20648;-79
2023/07/29 01:54:42;;;;;;;17.83;14.37;;;15.60;99.90;;;;;;5074261;28;20542;-79
2023/07/29 01:57:10;;;;;;;22.80;15.00;;;15.60;99.90;;;;;;5074183;28;20667;-79
2023/07/29 01:59:36;;;;;;;19.03;14.87;;;15.60;99.90;;;;;;5074135;28;20273;-79
2023/07/29 02:02:03;;;;;;;18.33;12.93;;;15.50;99.90;;;;;;5074182;28;20204;-79
2023/07/29 02:04:30;;;;;;;18.23;13.57;;;15.60;99.90;;;;;;5074108;28;20197;-80
2023/07/29 02:06:56;;;;;;;17.73;14.13;;;15.60;99.90;;;;;;5074311;28;20255;-80
2023/07/29 02:09:23;;;;;;;16.90;13.47;;;15.60;99.90;;;;;;5074159;28;20239;-80
2023/07/29 02:11:50;;;;;;;18.10;13.37;;;15.70;99.90;;;;;;5073951;28;20246;-80
2023/07/29 02:14:18;;;;;;;20.40;14.40;;;15.70;99.90;;;;;;5073791;28;20706;-79
2023/07/29 02:16:44;;;;;;;19.03;14.77;;;15.70;99.90;;;;;;5073756;28;20250;-80
2023/07/29 02:19:11;;;;;;;17.27;13.97;;;15.70;99.90;;;;;;5074137;28;20190;-80
2023/07/29 02:21:37;;;;;;;15.47;13.20;;;15.70;99.90;;;;;;5073955;28;20623;-80
2023/07/29 02:24:05;;;;;;;17.33;14.03;;;15.70;99.90;;;;;;5073831;28;20193;-80
2023/07/29 02:26:31;;;;;;;17.30;13.67;;;15.60;99.90;;;;;;5073740;28;20205;-80
2023/07/29 02:28:58;;;;;;;15.60;12.77;;;15.60;99.90;;;;;;5073834;28;20196;-80
2023/07/29 02:31:26;;;;;;;16.33;14.07;;;15.50;99.90;;;;;;5074364;28;20235;-80
2023/07/29 02:33:53;;;;;;;17.20;13.73;;;15.40;99.90;;;;;;5074465;28;20738;-79
2023/07/29 02:36:20;;;;;;;18.33;13.17;;;15.40;99.90;;;;;;5075531;28;20255;-79
2023/07/29 02:38:46;;;;;;;14.90;12.97;;;15.30;99.90;;;;;;5073438;28;20228;-80
2023/07/29 02:41:14;;;;;;;16.97;13.20;;;15.30;99.90;;;;;;5073563;28;20197;-80
2023/07/29 02:43:42;;;;;;;15.13;11.90;;;15.20;99.90;;;;;;5073459;28;20201;-79
2023/07/29 02:46:09;;;;;;;18.47;13.23;;;15.20;99.90;;;;;;5073610;28;20710;-80
2023/07/29 02:48:37;;;;;;;17.97;14.50;;;15.30;99.90;;;;;;5073860;28;20618;-80
2023/07/29 02:51:04;;;;;;;18.40;13.70;;;15.30;99.90;;;;;;5074006;28;20193;-79
2023/07/29 02:53:30;;;;;;;18.73;14.87;;;15.30;99.90;;;;;;5073851;28;20565;-80
2023/07/29 02:55:57;;;;;;;15.63;13.27;;;15.30;99.90;;;;;;5073859;28;20204;-79
2023/07/29 02:58:26;;;;;;;15.70;13.27;;;15.30;99.90;;;;;;5074370;28;20747;-79
2023/07/29 03:00:52;;;;;;;15.77;11.67;;;15.40;99.90;;;;;;5074249;28;20205;-79
2023/07/29 03:03:19;;;;;;;15.60;12.23;;;15.50;99.90;;;;;;5073810;28;20200;-79
2023/07/29 03:05:47;;;;;;;15.43;11.83;;;15.50;99.90;;;;;;5073695;28;20203;-80
2023/07/29 03:08:14;;;;;;;13.73;11.60;;;15.40;99.90;;;;;;5073414;28;20244;-80
2023/07/29 03:10:42;;;;;;;13.30;10.90;;;15.50;99.90;;;;;;5073376;28;20197;-80
2023/07/29 03:13:08;;;;;;;11.93;10.73;;;15.50;99.90;;;;;;5073177;28;20262;-80
2023/07/29 03:15:35;;;;;;;11.87;10.77;;;15.60;99.90;;;;;;5073280;28;20201;-80
2023/07/29 03:18:01;;;;;;;11.93;9.77;;;15.70;99.90;;;;;;5073026;28;20603;-79
2023/07/29 03:20:28;;;;;;;11.13;9.60;;;15.70;99.90;;;;;;5073194;28;20200;-80
2023/07/29 03:22:56;;;;;;;11.77;10.50;;;15.80;99.90;;;;;;5073345;28;20648;-79
2023/07/29 03:25:23;;;;;;;10.73;9.23;;;15.80;99.90;;;;;;5073034;28;20284;-79
2023/07/29 03:27:49;;;;;;;10.13;9.07;;;15.80;99.90;;;;;;5073360;28;20205;-79
2023/07/29 03:30:16;;;;;;;10.47;8.13;;;15.80;99.90;;;;;;5073357;28;20649;-79
2023/07/29 03:32:45;;;;;;;9.63;8.37;;;15.80;99.90;;;;;;5073638;28;20205;-80
2023/07/29 03:35:12;;;;;;;9.50;8.50;;;15.90;99.90;;;;;;5073203;28;20676;-80
2023/07/29 03:37:38;;;;;;;8.27;7.40;;;15.90;99.90;;;;;;5073059;28;20217;-80
2023/07/29 03:40:09;;;;;;;8.70;7.90;;;15.90;99.90;;;;;;5073687;28;20274;-79
2023/07/29 03:42:35;;;;;;;9.07;8.17;;;15.90;99.90;;;;;;5073485;28;20207;-79
2023/07/29 03:45:02;;;;;;;9.47;7.53;;;15.90;99.90;;;;;;5073456;28;20251;-79
2023/07/29 03:47:29;;;;;;;7.40;6.70;;;15.90;99.90;;;;;;5072944;28;20197;-79
2023/07/29 03:49:55;;;;;;;8.20;6.60;;;15.90;99.90;;;;;;5073330;28;20250;-79
2023/07/29 03:52:22;;;;;;;8.50;7.30;;;15.90;99.90;;;;;;5072596;28;20255;-80
2023/07/29 03:54:49;;;;;;;6.90;6.27;;;15.90;99.90;;;;;;5073158;28;20227;-80
2023/07/29 03:57:16;;;;;;;7.97;6.73;;;16.00;99.90;;;;;;5072699;28;20229;-79
2023/07/29 03:59:43;;;;;;;7.60;6.90;;;16.00;99.90;;;;;;5072781;28;20644;-80
2023/07/29 04:02:10;;;;;;;6.80;6.20;;;16.10;99.90;;;;;;5072962;28;20205;-80
2023/07/29 04:04:36;;;;;;;6.53;5.93;;;16.10;99.90;;;;;;5073299;28;20200;-79
2023/07/29 04:07:03;;;;;;;5.97;5.37;;;16.10;99.90;;;;;;5076611;28;20259;-80
2023/07/29 04:09:30;;;;;;;6.10;5.50;;;16.20;99.90;;;;;;5075988;28;20205;-79
2023/07/29 04:11:57;;;;;;;6.10;5.50;;;16.20;99.90;;;;;;5076255;28;20201;-80
2023/07/29 04:14:25;;;;;;;8.53;5.70;;;16.20;99.90;;;;;;5076126;28;20201;-79
2023/07/29 04:16:51;;;;;;;6.40;5.47;;;16.20;99.90;;;;;;5075928;28;20556;-79
2023/07/29 04:19:18;;;;;;;5.20;4.70;;;16.20;99.90;;;;;;5076023;28;20228;-79
2023/07/29 04:21:46;;;;;;;5.83;4.93;;;16.20;99.90;;;;;;5075996;28;20227;-79
2023/07/29 04:24:12;;;;;;;5.63;5.13;;;16.20;99.90;;;;;;5076073;28;20656;-80
2023/07/29 04:26:39;;;;;;;5.90;5.30;;;16.20;99.90;;;;;;5076330;28;20197;-79
2023/07/29 04:29:06;;;;;;;6.50;5.43;;;16.20;99.90;;;;;;5076007;28;20205;-80
2023/07/29 04:31:34;;;;;;;6.63;5.40;;;16.20;99.90;;;;;;5075986;28;20197;-80
2023/07/29 04:34:00;;;;;;;6.30;5.60;;;16.30;99.90;;;;;;5075660;28;20201;-80
2023/07/29 04:36:27;;;;;;;6.25;5.65;;;16.30;99.90;;;;;;5075800;28;20197;-80
2023/07/29 04:38:54;;;;;;;8.37;5.70;;;16.40;99.90;;;;;;5075994;28;20225;-79
2023/07/29 04:41:20;;;;;;;8.07;5.70;;;16.50;99.90;;;;;;5075944;28;20201;-79
2023/07/29 04:43:49;;;;;;;5.40;4.80;;;16.50;99.90;;;;;;5075609;28;20219;-80
2023/07/29 04:46:16;;;;;;;6.00;5.45;;;16.50;99.90;;;;;;5075344;28;20248;-79
2023/07/29 04:48:43;;;;;;;5.97;5.40;;;16.60;99.90;;;;;;5075458;28;20200;-79
2023/07/29 04:51:10;;;;;;;5.45;4.78;;;16.50;99.90;;;;;;5075752;28;20259;-79
2023/07/29 04:53:38;;;;;;;5.13;4.57;;;16.50;99.90;;;;;;5075674;28;20193;-80
2023/07/29 04:56:05;;;;;;;5.03;4.57;;;16.60;99.90;;;;;;5075242;28;20232;-80
2023/07/29 04:58:34;;;;;;;4.43;4.03;;;16.60;99.90;;;;;;5075558;28;20241;-80
2023/07/29 05:01:01;;;;;;;6.90;4.90;;;16.70;99.90;;;;;;5075062;28;20201;-79
2023/07/29 05:03:27;;;;;;;4.53;4.13;;;16.70;99.90;;;;;;5075314;28;20266;-79
2023/07/29 05:05:57;;;;;;;4.32;3.92;;;16.80;99.90;;;;;;5075422;28;20204;-79
2023/07/29 05:08:24;;;;;;;6.78;4.03;;;16.80;99.90;;;;;;5075102;28;20582;-79
2023/07/29 05:10:51;;;;;;;5.07;3.47;;;16.80;99.90;;;;;;5075125;28;20251;-79
2023/07/29 05:13:17;;;;;;;6.07;3.67;;;16.80;99.90;;;;;;5075051;28;20707;-80
2023/07/29 05:15:44;;;;;;;5.85;3.78;;;16.90;99.90;;;;;;5074204;28;20255;-79
2023/07/29 05:18:10;;;;;;;5.78;3.30;;;16.90;99.90;;;;;;5074571;28;20217;-79
2023/07/29 05:20:37;;;;;;;4.97;3.20;;;16.90;99.90;;;;;;5074856;28;20193;-80
2023/07/29 05:23:05;;;;;;;3.73;3.33;;;16.80;99.90;;;;;;5075076;28;20201;-79
2023/07/29 05:25:32;;;;;;;4.25;3.95;;;16.80;99.90;;;;;;5074770;28;20652;-80
2023/07/29 05:27:58;;;;;;;3.80;3.50;;;16.90;99.90;;;;;;5074816;28;20201;-79
2023/07/29 05:30:26;;;;;;;7.32;3.97;;;16.90;99.90;;;;;;5074352;28;20614;-79
2023/07/29 05:32:53;;;;;;;4.75;3.28;;;16.90;99.90;;;;;;5074957;28;20234;-80
2023/07/29 05:35:20;;;;;;;5.18;3.42;;;17.00;99.90;;;;;;5074696;28;20200;-79
2023/07/29 05:37:46;;;;;;;4.10;3.70;;;17.10;99.90;;;;;;5074491;28;20712;-80
2023/07/29 05:40:14;;;;;;;5.13;3.08;;;17.20;99.90;;;;;;5074518;28;20282;-79
2023/07/29 05:42:41;;;;;;;4.82;3.13;;;17.10;99.90;;;;;;5074268;28;20196;-79
2023/07/29 05:45:09;;;;;;;5.82;3.22;;;17.20;99.90;;;;;;5074501;28;20250;-80
2023/07/29 05:47:35;;;;;;;5.30;3.25;;;17.20;99.90;;;;;;5074385;28;20250;-80
2023/07/29 05:50:04;;;;;;;4.20;2.80;;;17.30;99.90;;;;;;5074034;28;20254;-79
2023/07/29 05:52:31;;;;;;;2.90;2.70;;;17.20;99.90;;;;;;5073960;28;20205;-79
2023/07/29 05:54:57;;;;;;;3.13;2.72;;;17.20;99.90;;;;;;5073902;28;20197;-80
2023/07/29 05:57:25;;;;;;;5.68;3.28;;;17.20;99.90;;;;;;5074080;28;20773;-80
2023/07/29 05:59:52;;;;;;;4.50;3.17;;;17.20;99.90;;;;;;5074163;28;20224;-79
2023/07/29 06:02:18;;;;;;;3.20;2.90;;;17.20;99.90;;;;;;5074189;28;20193;-80
2023/07/29 06:04:45;;;;;;;3.60;2.90;;;17.30;99.90;;;;;;5073888;28;20250;-81
2023/07/29 06:07:12;;;;;;;4.63;3.30;;;17.30;99.90;;;;;;5074109;28;20239;-83
2023/07/29 06:09:40;;;;;;;4.45;2.80;;;17.30;99.90;;;;;;5073921;28;20201;-82
2023/07/29 06:12:07;;;;;;;8.07;2.90;;;17.20;99.90;;;;;;5073897;28;20205;-82
2023/07/29 06:14:35;;;;;;;5.60;3.80;;;17.10;99.90;;;;;;5074385;28;20193;-86
2023/07/29 06:17:02;;;;;;;20.85;4.28;;;16.80;99.90;;;;;;5074793;28;20196;-83
2023/07/29 06:19:28;;;;;;;8.48;4.07;;;16.50;99.90;;;;;;5074173;28;20274;-82
2023/07/29 06:21:56;;;;;;;8.87;4.20;;;16.50;99.90;;;;;;5073710;28;20927;-80
2023/07/29 06:24:23;;;;;;;5.10;3.80;;;16.40;99.90;;;;;;5073895;28;20262;-82
2023/07/29 06:26:50;;;;;;;8.80;4.23;;;16.50;99.90;;;;;;5076415;28;20200;-82
2023/07/29 06:29:16;;;;;;;8.60;4.60;;;16.50;99.90;;;;;;5075160;28;20255;-84
2023/07/29 06:31:44;;;;;;;9.17;4.50;;;16.50;99.90;;;;;;5074150;28;20197;-85
2023/07/29 06:34:11;;;;;;;11.13;4.30;;;16.60;99.90;;;;;;5074645;28;20227;-85
2023/07/29 06:36:37;;;;;;;8.00;4.50;;;16.60;99.90;;;;;;5074246;28;20250;-86
2023/07/29 06:39:04;;;;;;;9.63;4.60;;;16.60;99.90;;;;;;5074125;28;20221;-87
2023/07/29 06:41:31;;;;;;;7.07;4.30;;;16.60;99.90;;;;;;5074575;28;20665;-82
2023/07/29 06:43:58;;;;;;;8.40;4.40;;;16.70;99.90;;;;;;5073807;28;20193;-81
2023/07/29 06:46:25;;;;;;;6.93;4.30;;;16.70;99.90;;;;;;5073964;28;20201;-82
2023/07/29 06:48:53;;;;;;;4.88;4.30;;;16.80;99.90;;;;;;5074529;28;20215;-81
2023/07/29 06:51:19;;;;;;;5.82;4.50;;;16.90;99.90;;;;;;5074633;28;20205;-82
2023/07/29 06:53:46;;;;;;;9.40;5.13;;;17.00;99.90;;;;;;5073830;28;20197;-83
2023/07/29 06:56:13;;;;;;;7.82;5.15;;;17.00;99.90;;;;;;5073720;28;20237;-82
2023/07/29 06:58:39;;;;;;;11.82;5.78;;;17.10;99.90;;;;;;5073822;28;20225;-82
2023/07/29 07:01:06;;;;;;;5.90;5.32;;;17.10;99.90;;;;;;5072993;28;20197;-79
2023/07/29 07:03:33;;;;;;;8.05;5.40;;;17.20;99.90;;;;;;5072658;28;20201;-80
2023/07/29 07:06:01;;;;;;;9.27;6.93;;;17.40;99.90;;;;;;5072905;28;20203;-81
2023/07/29 07:08:27;;;;;;;7.05;5.07;;;17.50;99.90;;;;;;5073371;28;20197;-81
2023/07/29 07:10:54;;;;;;;7.03;4.68;;;17.60;99.90;;;;;;5073566;28;20201;-81
2023/07/29 07:13:21;;;;;;;6.50;5.20;;;17.70;99.90;;;;;;5073267;28;20197;-81
2023/07/29 07:15:47;;;;;;;6.35;5.75;;;17.80;99.90;;;;;;5073804;28;20200;-86
2023/07/29 07:18:14;;;;;;;8.70;4.60;;;17.80;99.90;;;;;;5075852;28;20246;-87
2023/07/29 07:20:41;;;;;;;5.60;4.18;;;18.00;99.90;;;;;;5076325;28;20267;-88
2023/07/29 07:23:11;;;;;;;9.68;4.80;;;18.00;99.90;;;;;;5078065;28;20238;-87
2023/07/29 07:25:38;;;;;;;10.57;4.53;;;17.90;99.90;;;;;;5090957;28;20220;-87
2023/07/29 07:28:05;;;;;;;4.22;3.30;;;18.00;99.90;;;;;;5087247;28;20201;-86
2023/07/29 07:30:31;;;;;;;6.00;3.70;;;17.90;99.90;;;;;;5081126;28;20205;-86
2023/07/29 07:32:58;;;;;;;4.95;3.70;;;18.00;99.90;;;;;;5080129;28;20538;-86
2023/07/29 07:35:24;;;;;;;7.10;3.95;;;18.10;99.90;;;;;;5075007;28;20254;-87
2023/07/29 07:37:51;;;;;;;3.50;3.20;;;18.00;99.90;;;;;;5075138;28;20607;-87
2023/07/29 07:40:19;;;;;;;5.00;3.33;;;17.90;99.90;;;;;;5076741;28;20302;-87
2023/07/29 07:42:46;;;;;;;4.72;3.80;;;18.00;99.90;;;;;;5078113;28;20193;-87
2023/07/29 07:45:12;;;;;;;4.53;4.03;;;18.00;99.90;;;;;;5078745;28;20599;-87
2023/07/29 07:47:39;;;;;;;6.05;4.50;;;18.00;99.90;;;;;;5078450;28;20254;-87
2023/07/29 07:50:06;;;;;;;5.43;4.05;;;17.90;99.90;;;;;;5079975;28;20277;-87
2023/07/29 07:52:33;;;;;;;6.97;4.80;;;17.80;99.90;;;;;;5079405;28;20205;-86
2023/07/29 07:54:59;;;;;;;5.43;4.70;;;18.00;99.90;;;;;;5078880;28;20209;-88
2023/07/29 07:57:27;;;;;;;6.25;3.97;;;18.00;99.90;;;;;;5079186;28;20229;-86
2023/07/29 07:59:54;;;;;;;6.30;3.80;;;18.00;99.90;;;;;;5077868;28;20229;-86
2023/07/29 08:02:21;;;;;;;4.68;3.72;;;17.80;99.90;;;;;;5077421;28;20247;-84
2023/07/29 08:04:48;;;;;;;5.07;3.67;;;17.70;99.90;;;;;;5077049;28;20287;-83
2023/07/29 08:07:14;;;;;;;21.58;4.90;;;17.80;99.90;;;;;;5076328;28;20208;-80
2023/07/29 08:09:41;;;;;;;8.50;4.72;;;17.80;99.90;;;;;;5075762;28;20246;-78
2023/07/29 08:12:08;;;;;;;9.15;5.00;;;17.80;99.90;;;;;;5075356;28;20603;-77
2023/07/29 08:14:36;;;;;;;16.27;4.82;;;17.90;99.90;;;;;;5075509;28;20701;-75
2023/07/29 08:17:02;;;;;;;7.97;6.15;;;17.80;99.90;;;;;;5075410;28;20205;-77
2023/07/29 08:19:29;;;;;;;7.75;6.00;;;17.80;99.90;;;;;;5075523;28;20248;-79
2023/07/29 08:21:56;;;;;;;7.38;5.85;;;17.90;99.90;;;;;;5075841;28;20251;-79
2023/07/29 08:24:22;;;;;;;7.28;6.00;;;17.80;99.90;;;;;;5075737;28;20702;-78
2023/07/29 08:26:49;;;;;;;8.38;6.22;;;17.80;99.90;;;;;;5075644;28;20196;-78
2023/07/29 08:29:16;;;;;;;8.07;6.10;;;17.80;99.90;;;;;;5075480;28;20201;-78
2023/07/29 08:31:44;;;;;;;11.02;6.13;;;17.90;99.90;;;;;;5075568;28;20201;-79
2023/07/29 08:34:10;;;;;;;9.32;6.00;;;17.90;99.90;;;;;;5075081;28;20634;-77
2023/07/29 08:36:37;;;;;;;8.25;5.88;;;17.80;99.90;;;;;;5075310;28;20197;-80
2023/07/29 08:39:04;;;;;;;9.80;6.80;;;17.90;99.90;;;;;;5075587;28;20193;-80
2023/07/29 08:41:37;;;;;;;6.13;5.35;;;18.00;99.90;;;;;;5075704;28;20270;-80
2023/07/29 08:44:10;;;;;;;6.93;5.95;;;18.00;99.90;;;;;;5075466;28;20201;-81
2023/07/29 08:46:37;;;;;;;7.20;6.00;;;18.00;99.90;;;;;;5075716;28;20219;-82
2023/07/29 08:49:06;;;;;;;10.63;6.97;;;18.00;99.90;;;;;;5075615;28;20208;-82
2023/07/29 08:51:33;;;;;;;12.65;6.80;;;18.10;99.90;;;;;;5075526;28;20235;-83
2023/07/29 08:54:00;;;;;;;8.73;7.00;;;18.20;99.90;;;;;;5075785;28;20193;-83
2023/07/29 08:56:27;;;;;;;12.07;7.88;;;18.20;99.90;;;;;;5075462;28;20255;-83
2023/07/29 08:58:55;;;;;;;10.73;7.50;;;18.20;99.90;;;;;;5076985;28;20193;-83
2023/07/29 09:01:21;;;;;;;9.00;8.10;;;18.20;99.90;;;;;;5076271;28;20254;-80
2023/07/29 09:03:48;;;;;;;10.80;7.75;;;18.10;99.90;;;;;;5077342;28;20246;-82
2023/07/29 09:06:17;;;;;;;7.68;6.38;;;18.00;99.90;;;;;;5075383;28;20197;-82
2023/07/29 09:08:45;;;;;;;8.95;8.00;;;18.10;99.90;;;;;;5074799;28;20246;-81
2023/07/29 09:11:16;;;;;;;11.55;7.60;;;18.00;99.90;;;;;;5075313;28;20201;-83
2023/07/29 09:13:42;;;;;;;8.77;7.72;;;18.20;99.90;;;;;;5075310;28;20203;-84
2023/07/29 09:16:10;;;;;;;9.75;7.47;;;18.30;99.90;;;;;;5076165;28;20197;-85
2023/07/29 09:18:37;;;;;;;8.70;7.57;;;18.40;99.90;;;;;;5078863;28;20249;-87
2023/07/29 09:21:03;;;;;;;11.50;7.50;;;18.30;99.90;;;;;;5076006;28;20221;-86
2023/07/29 09:23:39;;;;;;;10.43;6.88;;;18.40;99.90;;;;;;5075906;28;20231;-84
2023/07/29 09:26:06;;;;;;;5.95;5.45;;;18.40;99.90;;;;;;5076375;28;20203;-86
2023/07/29 09:28:35;;;;;;;10.35;5.97;;;18.40;99.90;;;;;;5076234;28;20267;-86
2023/07/29 09:31:01;;;;;;;7.97;6.22;;;18.50;99.90;;;;;;5076386;28;20208;-86
2023/07/29 09:33:28;;;;;;;7.00;6.28;;;18.80;99.90;;;;;;5075674;28;20197;-86
2023/07/29 09:35:55;;;;;;;5.57;5.07;;;18.90;99.90;;;;;;5075914;28;20251;-87
2023/07/29 09:38:28;;;;;;;6.18;4.80;;;18.90;99.90;;;;;;5076473;28;20223;-87
2023/07/29 09:40:58;;;;;;;5.57;5.07;;;19.00;99.90;;;;;;5076697;28;20311;-88
2023/07/29 09:43:29;;;;;;;4.88;4.45;;;19.10;99.90;;;;;;5077739;28;20201;-88
2023/07/29 09:45:56;;;;;;;4.05;3.65;;;19.10;99.90;;;;;;5085132;28;20205;-88
2023/07/29 09:48:23;;;;;;;4.30;3.90;;;19.10;99.90;;;;;;5096644;28;20181;-84
2023/07/29 09:50:50;;;;;;;3.47;3.17;;;19.10;99.90;;;;;;5096498;28;20180;-90
2023/07/29 09:53:17;;;;;;;3.45;3.15;;;18.70;99.90;;;;;;5081032;28;20201;-89
2023/07/29 09:55:50;;;;;;;4.35;3.67;;;18.50;99.90;;;;;;5077223;28;20200;-87
2023/07/29 09:58:26;;;;;;;3.70;3.13;;;18.70;99.90;;;;;;5075282;28;20233;-85
2023/07/29 10:00:53;;;;;;;5.25;3.47;;;18.50;99.90;;;;;;5074382;28;20225;-85
2023/07/29 10:03:22;;;;;;;3.90;3.47;;;18.60;99.90;;;;;;5077258;28;20209;-84
2023/07/29 10:05:50;;;;;;;5.60;3.55;;;18.60;99.90;;;;;;5075236;28;20247;-84
2023/07/29 10:08:18;;;;;;;7.15;3.80;;;18.70;99.90;;;;;;5074494;28;20196;-84
2023/07/29 10:10:45;;;;;;;3.38;3.08;;;18.90;99.90;;;;;;5074625;28;20197;-84
2023/07/29 10:13:13;;;;;;;4.20;3.80;;;18.90;99.90;;;;;;5074157;28;20262;-84
2023/07/29 10:15:41;;;;;;;4.55;3.72;;;18.80;99.90;;;;;;5074419;28;20607;-84
2023/07/29 10:18:08;;;;;;;7.97;3.92;;;19.00;99.90;;;;;;5075638;28;20223;-84
2023/07/29 10:20:35;;;;;;;4.30;3.22;;;19.10;99.90;;;;;;5074796;28;20224;-84
2023/07/29 10:23:06;;;;;;;3.63;3.25;;;19.40;99.90;;;;;;5073904;28;20205;-84
2023/07/29 10:25:38;;;;;;;3.60;3.10;;;19.60;99.90;;;;;;5073542;28;20197;-83
2023/07/29 10:28:07;;;;;;;3.05;2.67;;;19.80;99.90;;;;;;5074412;28;20204;-84
2023/07/29 10:30:33;;;;;;;3.92;2.70;;;19.50;99.90;;;;;;5074547;28;20193;-84
2023/07/29 10:33:03;;;;;;;3.15;2.67;;;19.90;99.90;;;;;;5077563;28;20201;-84
2023/07/29 10:35:30;;;;;;;2.70;2.50;;;19.70;99.90;;;;;;5077578;28;20200;-85
2023/07/29 10:37:58;;;;;;;4.78;2.58;;;20.30;99.90;;;;;;5075090;28;20197;-83
2023/07/29 10:40:24;;;;;;;3.33;2.60;;;20.50;99.90;;;;;;5076675;28;20684;-82
2023/07/29 10:43:02;;;;;;;4.07;2.72;;;19.80;99.90;;;;;;5074585;28;20196;-82
2023/07/29 10:45:38;;;;;;;3.03;2.70;;;19.60;99.90;;;;;;5074015;28;20231;-83
2023/07/29 10:48:10;;;;;;;3.63;2.40;;;19.70;99.90;;;;;;5078436;28;20200;-82
2023/07/29 10:50:37;;;;;;;3.53;2.30;;;19.90;99.90;;;;;;5076788;28;20197;-81
2023/07/29 10:53:04;;;;;;;5.93;2.60;;;20.20;99.90;;;;;;5073299;28;20668;-81
2023/07/29 10:55:34;;;;;;;2.35;2.03;;;21.00;99.90;;;;;;5073735;28;20260;-80
2023/07/29 10:58:15;;;;;;;2.67;2.20;;;21.10;99.90;;;;;;5073156;28;20239;-80
2023/07/29 11:00:43;;;;;;;4.15;2.40;;;21.30;99.90;;;;;;5073336;28;20569;-79
2023/07/29 11:03:14;;;;;;;2.50;2.17;;;21.00;99.90;;;;;;5073471;28;20201;-79
2023/07/29 11:05:49;;;;;;;2.35;2.15;;;21.00;99.90;;;;;;5073401;28;20193;-78
2023/07/29 11:08:24;;;;;;;5.47;2.13;;;21.00;99.90;;;;;;5073376;28;20197;-79
2023/07/29 11:11:02;;;;;;;2.38;2.17;;;20.90;99.90;;;;;;5072888;28;20205;-78
2023/07/29 11:13:30;;;;;;;5.10;2.70;;;20.70;99.90;;;;;;5074064;28;20594;-78
2023/07/29 11:15:58;;;;;;;2.15;1.95;;;20.60;99.90;;;;;;5077252;28;20200;-78
2023/07/29 11:18:28;;;;;;;2.80;2.22;;;20.60;99.90;;;;;;5077703;28;20368;-79
2023/07/29 11:20:55;;;;;;;2.60;2.38;;;20.70;99.90;;;;;;5077239;28;20285;-78
2023/07/29 11:23:28;;;;;;;2.72;2.42;;;20.60;99.90;;;;;;5076830;28;20201;-78
2023/07/29 11:25:55;;;;;;;3.08;2.78;;;20.50;99.90;;;;;;5076947;28;20200;-78
2023/07/29 11:28:21;;;;;;;3.38;3.08;;;20.50;99.90;;;;;;5077016;28;20262;-78
2023/07/29 11:30:50;;;;;;;3.72;2.85;;;20.60;99.90;;;;;;5076908;28;20193;-78
2023/07/29 11:33:19;;;;;;;3.40;3.10;;;20.60;99.90;;;;;;5076733;28;20599;-79
2023/07/29 11:35:47;;;;;;;4.60;3.05;;;20.90;99.90;;;;;;5076569;28;20706;-78
2023/07/29 11:38:16;;;;;;;4.30;3.05;;;21.10;99.90;;;;;;5076856;28;20201;-79
2023/07/29 11:40:43;;;;;;;3.00;2.70;;;21.30;99.90;;;;;;5076707;28;20635;-79
2023/07/29 11:43:10;;;;;;;3.45;2.97;;;21.80;99.90;;;;;;5076632;28;20200;-78
2023/07/29 11:45:36;;;;;;;2.70;2.50;;;22.00;99.90;;;;;;5076587;28;20201;-79
2023/07/29 11:48:03;;;;;;;4.03;2.78;;;22.20;99.90;;;;;;5076343;28;20274;-79
2023/07/29 11:50:30;;;;;;;3.50;2.67;;;23.30;99.90;;;;;;5076078;28;20656;-79
2023/07/29 11:52:59;;;;;;;3.70;2.20;;;23.60;99.90;;;;;;5076288;28;20649;-79
2023/07/29 11:55:26;;;;;;;2.55;1.90;;;23.90;99.90;;;;;;5076268;28;20197;-79
2023/07/29 11:57:53;;;;;;;2.15;1.92;;;24.20;99.90;;;;;;5076293;28;20229;-79
2023/07/29 12:00:22;;;;;;;2.35;2.15;;;24.20;99.90;;;;;;5076991;28;20217;-78
2023/07/29 12:02:50;;;;;;;2.25;2.00;;;24.20;99.90;;;;;;5076805;28;20272;-78
2023/07/29 12:05:19;;;;;;;3.28;2.10;;;24.20;99.90;;;;;;5076192;28;20859;-78
2023/07/29 12:07:45;;;;;;;2.20;2.00;;;24.00;99.90;;;;;;5076185;28;20193;-79
2023/07/29 12:10:14;;;;;;;2.20;2.00;;;24.20;99.90;;;;;;5076227;28;20201;-78
2023/07/29 12:12:51;;;;;;;2.60;1.92;;;24.70;99.90;;;;;;5076499;28;20201;-79
2023/07/29 12:15:25;;;;;;;2.15;2.03;;;24.80;99.90;;;;;;5075970;28;20197;-77
2023/07/29 12:17:56;;;;;;;2.20;2.00;;;24.70;99.90;;;;;;5075627;28;20230;-78
2023/07/29 12:20:22;;;;;;;2.55;2.35;;;24.90;99.90;;;;;;5075690;28;20676;-78
2023/07/29 12:22:53;;;;;;;5.10;2.42;;;25.70;99.90;;;;;;5075545;28;20208;-78
2023/07/29 12:25:21;;;;;;;4.85;1.98;;;26.70;99.90;;;;;;5075051;28;20197;-78
2023/07/29 12:27:48;;;;;;;3.05;2.10;;;26.10;99.90;;;;;;5075386;28;20197;-79
2023/07/29 12:30:15;;;;;;;2.30;2.10;;;28.00;99.90;;;;;;5075483;28;20201;-78
2023/07/29 12:32:45;;;;;;;2.90;2.35;;;27.80;99.90;;;;;;5075586;28;20698;-78
2023/07/29 12:35:11;;;;;;;3.33;2.05;;;27.80;99.90;;;;;;5075285;28;20223;-78
2023/07/29 12:37:38;;;;;;;3.38;1.95;;;27.70;99.90;;;;;;5075511;28;20250;-78
2023/07/29 12:40:06;;;;;;;5.63;5.22;;;27.70;99.90;;;;;;5075251;28;20661;-78
2023/07/29 12:42:34;;;;;;;2.10;1.70;;;28.50;99.90;;;;;;5075082;28;20664;-78
2023/07/29 12:45:00;;;;;;;2.08;1.98;;;27.00;99.90;;;;;;5075294;28;20201;-79